createdAt,value
2018-04-11T00:00:21.862Z,17.59
2018-04-11T00:02:23.283Z,17.55
2018-04-11T00:04:24.763Z,17.50
2018-04-11T00:06:26.230Z,17.47
2018-04-11T00:08:27.694Z,17.40
2018-04-11T00:10:29.127Z,17.40
2018-04-11T00:12:30.564Z,17.35
2018-04-11T00:14:32.014Z,17.29
2018-04-11T00:16:33.608Z,17.26
2018-04-11T00:18:35.031Z,17.29
2018-04-11T00:20:36.456Z,17.22
2018-04-11T00:22:37.897Z,17.13
2018-04-11T00:24:39.329Z,17.10
2018-04-11T00:26:40.757Z,17.08
2018-04-11T00:28:42.187Z,17.07
2018-04-11T00:30:43.606Z,17.00
2018-04-11T00:32:45.097Z,16.96
2018-04-11T00:34:46.498Z,17.04
2018-04-11T00:36:47.917Z,16.93
2018-04-11T00:38:49.343Z,16.95
2018-04-11T00:40:50.763Z,16.88
2018-04-11T00:42:52.177Z,16.89
2018-04-11T00:44:53.601Z,16.92
2018-04-11T00:46:55.025Z,16.92
2018-04-11T00:48:56.457Z,16.81
2018-04-11T00:50:57.875Z,16.83
2018-04-11T00:52:59.296Z,16.80
2018-04-11T00:55:00.718Z,16.75
2018-04-11T00:57:02.140Z,16.85
2018-04-11T00:59:03.561Z,16.80
2018-04-11T01:01:04.984Z,16.78
2018-04-11T01:03:06.405Z,16.68
2018-04-11T01:05:07.830Z,16.80
2018-04-11T01:07:09.258Z,16.70
2018-04-11T01:09:10.676Z,16.70
2018-04-11T01:11:12.095Z,16.73
2018-04-11T01:13:13.515Z,16.55
2018-04-11T01:15:15.027Z,16.56
2018-04-11T01:17:16.519Z,16.58
2018-04-11T01:19:17.976Z,16.58
2018-04-11T01:21:19.465Z,16.56
2018-04-11T01:23:20.962Z,16.48
2018-04-11T01:25:22.438Z,16.44
2018-04-11T01:27:23.859Z,16.38
2018-04-11T01:29:25.296Z,16.40
2018-04-11T01:31:26.804Z,16.27
2018-04-11T01:33:28.255Z,16.18
2018-04-11T01:35:29.669Z,16.27
2018-04-11T01:37:31.164Z,16.20
2018-04-11T01:39:32.613Z,16.09
2018-04-11T01:41:34.030Z,16.14
2018-04-11T01:43:35.451Z,16.16
2018-04-11T01:45:36.911Z,16.07
2018-04-11T01:47:38.805Z,15.99
2018-04-11T01:49:42.131Z,16.07
2018-04-11T01:51:43.591Z,15.96
2018-04-11T01:53:45.114Z,16.03
2018-04-11T01:55:46.565Z,16.09
2018-04-11T01:57:47.996Z,16.03
2018-04-11T01:59:49.439Z,15.97
2018-04-11T02:01:50.955Z,15.89
2018-04-11T02:03:52.468Z,15.92
2018-04-11T02:05:53.976Z,15.85
2018-04-11T02:07:55.415Z,15.82
2018-04-11T02:09:56.847Z,15.74
2018-04-11T02:11:58.320Z,15.61
2018-04-11T02:13:59.833Z,15.52
2018-04-11T02:16:01.254Z,15.39
2018-04-11T02:18:02.675Z,15.39
2018-04-11T02:20:04.093Z,15.48
2018-04-11T02:22:05.517Z,15.33
2018-04-11T02:24:06.941Z,15.33
2018-04-11T02:26:08.357Z,15.39
2018-04-11T02:28:09.784Z,15.30
2018-04-11T02:30:11.563Z,15.33
2018-04-11T02:32:13.125Z,15.24
2018-04-11T02:34:14.613Z,15.33
2018-04-11T02:36:16.144Z,15.36
2018-04-11T02:38:17.726Z,15.31
2018-04-11T02:40:19.411Z,15.23
2018-04-11T02:42:21.652Z,15.05
2018-04-11T02:44:23.940Z,15.02
2018-04-11T02:46:25.619Z,15.11
2018-04-11T02:48:27.145Z,15.08
2018-04-11T02:50:28.572Z,14.93
2018-04-11T02:52:29.999Z,14.88
2018-04-11T02:54:31.489Z,14.91
2018-04-11T02:56:33.462Z,14.90
2018-04-11T02:58:35.824Z,14.88
2018-04-11T03:00:37.519Z,14.86
2018-04-11T03:02:38.950Z,14.83
2018-04-11T03:04:40.386Z,14.86
2018-04-11T03:06:41.892Z,14.72
2018-04-11T03:08:43.359Z,14.78
2018-04-11T03:10:44.832Z,14.71
2018-04-11T03:12:46.308Z,14.65
2018-04-11T03:14:47.757Z,14.67
2018-04-11T03:16:49.987Z,14.65
2018-04-11T03:18:51.512Z,14.62
2018-04-11T03:20:53.046Z,14.71
2018-04-11T03:22:54.499Z,14.68
2018-04-11T03:24:55.930Z,14.56
2018-04-11T03:26:57.509Z,14.49
2018-04-11T03:28:58.998Z,14.50
2018-04-11T03:31:00.498Z,14.42
2018-04-11T03:33:02.005Z,14.42
2018-04-11T03:35:03.480Z,14.34
2018-04-11T03:37:04.937Z,14.34
2018-04-11T03:39:06.425Z,14.44
2018-04-11T03:41:07.880Z,14.39
2018-04-11T03:43:09.337Z,14.37
2018-04-11T03:45:10.781Z,14.31
2018-04-11T03:47:12.335Z,14.34
2018-04-11T03:49:13.770Z,14.38
2018-04-11T03:51:15.211Z,14.31
2018-04-11T03:53:16.669Z,14.20
2018-04-11T03:55:18.126Z,14.16
2018-04-11T03:57:19.559Z,14.16
2018-04-11T03:59:21.064Z,14.14
2018-04-11T04:01:22.533Z,14.13
2018-04-11T04:03:24.045Z,14.04
2018-04-11T04:05:25.499Z,13.95
2018-04-11T04:07:26.988Z,14.04
2018-04-11T04:09:28.442Z,13.94
2018-04-11T04:11:29.867Z,13.91
2018-04-11T04:13:31.311Z,13.88
2018-04-11T04:15:32.792Z,13.83
2018-04-11T04:17:34.267Z,13.83
2018-04-11T04:19:35.744Z,13.83
2018-04-11T04:21:37.193Z,13.83
2018-04-11T04:23:38.646Z,13.80
2018-04-11T04:25:40.097Z,13.83
2018-04-11T04:27:41.530Z,13.94
2018-04-11T04:29:42.957Z,13.92
2018-04-11T04:31:44.377Z,13.92
2018-04-11T04:33:45.873Z,14.04
2018-04-11T04:35:47.295Z,13.98
2018-04-11T04:38:29.222Z,13.79
2018-04-11T04:40:30.655Z,13.77
2018-04-11T04:42:32.203Z,13.76
2018-04-11T04:44:33.787Z,13.69
2018-04-11T04:46:35.216Z,13.70
2018-04-11T04:48:36.664Z,13.71
2018-04-11T04:50:38.160Z,13.59
2018-04-11T04:52:39.685Z,13.59
2018-04-11T04:54:41.156Z,13.59
2018-04-11T04:56:42.582Z,13.56
2018-04-11T04:58:44.001Z,13.58
2018-04-11T05:00:45.417Z,13.59
2018-04-11T05:02:46.840Z,13.59
2018-04-11T05:04:48.264Z,13.51
2018-04-11T05:06:49.686Z,13.58
2018-04-11T05:08:51.113Z,13.56
2018-04-11T05:10:52.532Z,13.47
2018-04-11T05:12:53.945Z,13.46
2018-04-11T05:14:55.368Z,13.46
2018-04-11T05:16:56.809Z,13.54
2018-04-11T05:18:58.229Z,13.49
2018-04-11T05:20:59.651Z,13.49
2018-04-11T05:23:01.069Z,13.36
2018-04-11T05:25:02.487Z,13.40
2018-04-11T05:27:03.906Z,13.40
2018-04-11T05:29:05.326Z,13.38
2018-04-11T05:31:06.796Z,13.49
2018-04-11T05:33:08.209Z,13.49
2018-04-11T05:35:09.638Z,13.58
2018-04-11T05:37:11.059Z,13.65
2018-04-11T05:39:12.483Z,13.70
2018-04-11T05:41:13.908Z,13.73
2018-04-11T05:43:15.326Z,13.71
2018-04-11T05:45:16.763Z,13.74
2018-04-11T05:47:18.187Z,13.71
2018-04-11T05:49:19.604Z,13.65
2018-04-11T05:51:21.030Z,13.61
2018-04-11T05:53:22.486Z,13.77
2018-04-11T05:55:23.872Z,13.67
2018-04-11T05:57:25.294Z,13.76
2018-04-11T05:59:26.726Z,13.91
2018-04-11T06:01:28.181Z,13.81
2018-04-11T06:03:29.592Z,13.74
2018-04-11T06:05:31.013Z,13.83
2018-04-11T06:07:32.433Z,13.94
2018-04-11T06:09:33.860Z,13.94
2018-04-11T06:11:35.293Z,13.95
2018-04-11T06:13:36.712Z,14.01
2018-04-11T06:15:38.133Z,14.17
2018-04-11T06:17:39.583Z,14.28
2018-04-11T06:19:41.007Z,14.25
2018-04-11T06:21:42.432Z,14.32
2018-04-11T06:23:43.852Z,14.42
2018-04-11T06:25:45.280Z,14.50
2018-04-11T06:27:46.702Z,14.57
2018-04-11T06:29:48.132Z,14.80
2018-04-11T06:31:49.573Z,14.91
2018-04-11T06:33:50.997Z,15.19
2018-04-11T06:35:52.420Z,15.64
2018-04-11T06:37:53.843Z,15.93
2018-04-11T06:39:55.343Z,16.27
2018-04-11T06:41:56.770Z,16.49
2018-04-11T06:43:58.197Z,16.75
2018-04-11T06:45:59.621Z,17.17
2018-04-11T06:48:01.046Z,17.54
2018-04-11T06:50:02.471Z,17.71
2018-04-11T06:52:03.892Z,17.88
2018-04-11T06:54:05.324Z,18.12
2018-04-11T06:56:06.751Z,18.33
2018-04-11T06:58:08.269Z,18.47
2018-04-11T07:00:09.700Z,18.37
2018-04-11T07:02:11.126Z,18.33
2018-04-11T07:04:12.557Z,18.64
2018-04-11T07:06:13.987Z,19.01
2018-04-11T07:08:15.419Z,19.53
2018-04-11T07:10:16.865Z,19.39
2018-04-11T07:12:18.296Z,19.72
2018-04-11T07:14:19.729Z,19.91
2018-04-11T07:16:21.158Z,20.31
2018-04-11T07:18:22.590Z,20.28
2018-04-11T07:20:24.021Z,20.42
2018-04-11T07:22:25.457Z,20.38
2018-04-11T07:24:26.885Z,20.25
2018-04-11T07:26:28.317Z,20.66
2018-04-11T07:28:29.748Z,20.64
2018-04-11T07:30:31.190Z,20.33
2018-04-11T07:32:32.618Z,20.27
2018-04-11T07:34:34.057Z,20.80
2018-04-11T07:36:35.489Z,21.24
2018-04-11T07:38:36.920Z,21.26
2018-04-11T07:40:38.351Z,20.50
2018-04-11T07:42:39.792Z,20.43
2018-04-11T07:44:41.226Z,20.38
2018-04-11T07:46:42.657Z,20.23
2018-04-11T07:48:44.108Z,20.15
2018-04-11T07:50:45.528Z,20.74
2018-04-11T07:52:46.958Z,20.91
2018-04-11T07:54:48.414Z,20.95
2018-04-11T07:56:50.084Z,20.90
2018-04-11T07:58:51.516Z,21.17
2018-04-11T08:00:52.950Z,20.95
2018-04-11T08:02:54.383Z,20.71
2018-04-11T08:04:55.812Z,20.35
2018-04-11T08:06:57.263Z,20.10
2018-04-11T08:08:58.673Z,19.83
2018-04-11T08:11:00.105Z,19.75
2018-04-11T08:13:01.540Z,19.42
2018-04-11T08:15:02.974Z,19.28
2018-04-11T08:17:04.403Z,19.23
2018-04-11T08:19:05.829Z,19.20
2018-04-11T08:21:07.266Z,19.17
2018-04-11T08:23:08.696Z,18.86
2018-04-11T08:25:10.126Z,18.86
2018-04-11T08:27:11.566Z,18.70
2018-04-11T08:29:12.986Z,18.57
2018-04-11T08:31:14.444Z,18.54
2018-04-11T08:33:15.926Z,18.61
2018-04-11T08:35:17.443Z,18.70
2018-04-11T08:37:18.878Z,18.79
2018-04-11T08:39:20.311Z,18.97
2018-04-11T08:41:21.736Z,18.91
2018-04-11T08:43:23.172Z,19.08
2018-04-11T08:45:24.599Z,19.23
2018-04-11T08:47:26.081Z,19.43
2018-04-11T08:49:27.463Z,19.53
2018-04-11T08:51:28.896Z,19.58
2018-04-11T08:53:30.323Z,19.47
2018-04-11T08:55:31.754Z,19.51
2018-04-11T08:57:33.195Z,19.68
2018-04-11T08:59:34.627Z,19.76
2018-04-11T09:01:36.066Z,19.93
2018-04-11T09:03:37.498Z,19.90
2018-04-11T09:05:38.932Z,20.02
2018-04-11T09:07:40.373Z,20.23
2018-04-11T09:09:41.795Z,20.30
2018-04-11T09:11:43.229Z,20.33
2018-04-11T09:13:44.658Z,20.28
2018-04-11T09:15:46.093Z,20.41
2018-04-11T09:17:47.532Z,20.42
2018-04-11T09:19:48.966Z,20.47
2018-04-11T09:21:50.400Z,20.58
2018-04-11T09:23:51.831Z,20.64
2018-04-11T09:25:53.265Z,20.64
2018-04-11T09:27:54.700Z,20.86
2018-04-11T09:29:56.138Z,21.01
2018-04-11T09:31:57.632Z,21.11
2018-04-11T09:33:59.007Z,21.16
2018-04-11T09:36:00.439Z,21.17
2018-04-11T09:38:01.876Z,21.29
2018-04-11T09:40:03.303Z,21.35
2018-04-11T09:42:04.731Z,21.45
2018-04-11T09:44:06.113Z,21.75
2018-04-11T09:46:07.547Z,21.64
2018-04-11T09:48:08.994Z,21.75
2018-04-11T09:50:10.426Z,21.69
2018-04-11T09:52:11.951Z,21.59
2018-04-11T09:54:13.456Z,21.61
2018-04-11T09:56:15.193Z,21.46
2018-04-11T09:58:16.669Z,21.36
2018-04-11T10:00:18.157Z,20.98
2018-04-11T10:02:19.669Z,21.23
2018-04-11T10:04:21.168Z,21.46
2018-04-11T10:06:22.613Z,21.14
2018-04-11T10:08:24.069Z,21.20
2018-04-11T10:10:25.514Z,21.29
2018-04-11T10:12:26.948Z,21.45
2018-04-11T10:14:28.393Z,21.71
2018-04-11T10:16:29.833Z,21.92
2018-04-11T10:18:31.268Z,21.97
2018-04-11T10:20:32.705Z,22.09
2018-04-11T10:22:34.140Z,21.90
2018-04-11T10:24:35.574Z,21.87
2018-04-11T10:26:37.007Z,21.75
2018-04-11T10:28:38.446Z,21.74
2018-04-11T10:30:39.876Z,21.76
2018-04-11T10:32:41.312Z,21.82
2018-04-11T10:34:42.748Z,21.69
2018-04-11T10:36:44.182Z,21.75
2018-04-11T10:39:26.726Z,21.76
2018-04-11T10:41:28.134Z,21.35
2018-04-11T10:43:29.568Z,21.39
2018-04-11T10:45:31.000Z,21.35
2018-04-11T10:47:32.432Z,21.20
2018-04-11T10:49:33.864Z,21.23
2018-04-11T10:51:35.300Z,21.35
2018-04-11T10:53:36.732Z,21.46
2018-04-11T10:55:38.164Z,21.24
2018-04-11T10:57:39.596Z,21.42
2018-04-11T10:59:41.028Z,21.64
2018-04-11T11:01:42.459Z,21.71
2018-04-11T11:03:43.896Z,21.85
2018-04-11T11:05:45.334Z,22.29
2018-04-11T11:07:47.014Z,22.25
2018-04-11T11:09:49.052Z,21.97
2018-04-11T11:11:51.124Z,21.81
2018-04-11T11:13:52.685Z,21.66
2018-04-11T11:15:54.138Z,21.67
2018-04-11T11:17:55.571Z,21.66
2018-04-11T11:19:57.504Z,21.78
2018-04-11T11:21:58.952Z,22.06
2018-04-11T11:24:00.398Z,22.12
2018-04-11T11:26:01.836Z,22.39
2018-04-11T11:28:03.268Z,22.25
2018-04-11T11:30:04.697Z,22.20
2018-04-11T11:32:06.128Z,22.39
2018-04-11T11:34:07.569Z,22.62
2018-04-11T11:36:09.001Z,22.87
2018-04-11T11:38:10.431Z,23.19
2018-04-11T11:40:12.437Z,23.27
2018-04-11T11:42:14.034Z,23.17
2018-04-11T11:44:15.533Z,23.12
2018-04-11T11:46:16.963Z,22.74
2018-04-11T11:48:18.516Z,22.71
2018-04-11T11:50:20.167Z,22.90
2018-04-11T11:52:21.666Z,23.07
2018-04-11T11:54:23.153Z,22.72
2018-04-11T11:56:24.592Z,22.47
2018-04-11T11:58:26.032Z,22.53
2018-04-11T12:00:27.468Z,22.59
2018-04-11T12:02:28.904Z,22.75
2018-04-11T12:04:30.343Z,22.97
2018-04-11T12:06:31.908Z,23.11
2018-04-11T12:08:33.317Z,23.27
2018-04-11T12:10:34.757Z,23.27
2018-04-11T12:12:36.189Z,23.14
2018-04-11T12:14:37.624Z,23.35
2018-04-11T12:16:39.065Z,23.34
2018-04-11T12:18:40.492Z,23.27
2018-04-11T12:20:41.943Z,23.23
2018-04-11T12:22:43.368Z,23.46
2018-04-11T12:24:44.805Z,23.58
2018-04-11T12:26:46.244Z,23.19
2018-04-11T12:28:47.678Z,22.96
2018-04-11T12:30:49.115Z,22.75
2018-04-11T12:32:50.557Z,22.62
2018-04-11T12:34:52.040Z,22.50
2018-04-11T12:36:53.515Z,22.29
2018-04-11T12:38:55.028Z,22.01
2018-04-11T12:40:56.459Z,21.91
2018-04-11T12:42:57.893Z,21.85
2018-04-11T12:44:59.404Z,21.69
2018-04-11T12:47:01.603Z,21.63
2018-04-11T12:49:03.002Z,21.57
2018-04-11T12:51:04.433Z,21.32
2018-04-11T12:53:05.968Z,21.21
2018-04-11T12:55:07.400Z,21.27
2018-04-11T12:57:08.826Z,21.19
2018-04-11T12:59:10.261Z,21.05
2018-04-11T13:01:11.947Z,21.09
2018-04-11T13:03:13.583Z,21.06
2018-04-11T13:05:15.090Z,21.02
2018-04-11T13:07:16.619Z,21.05
2018-04-11T13:09:18.089Z,21.14
2018-04-11T13:11:19.563Z,21.32
2018-04-11T13:13:21.004Z,21.38
2018-04-11T13:15:22.442Z,21.51
2018-04-11T13:17:23.875Z,21.54
2018-04-11T13:19:25.337Z,21.34
2018-04-11T13:21:26.758Z,21.27
2018-04-11T13:23:28.234Z,21.26
2018-04-11T13:25:29.654Z,21.36
2018-04-11T13:27:31.276Z,21.23
2018-04-11T13:29:33.049Z,21.29
2018-04-11T13:31:34.530Z,21.30
2018-04-11T13:33:35.995Z,21.45
2018-04-11T13:35:37.430Z,21.59
2018-04-11T13:37:39.032Z,21.57
2018-04-11T13:39:40.722Z,21.54
2018-04-11T13:41:42.517Z,21.54
2018-04-11T13:43:43.994Z,21.60
2018-04-11T13:45:45.474Z,21.60
2018-04-11T13:47:47.080Z,21.60
2018-04-11T13:49:48.770Z,21.57
2018-04-11T13:51:50.279Z,21.61
2018-04-11T13:53:51.746Z,21.59
2018-04-11T13:55:53.209Z,21.53
2018-04-11T13:57:54.724Z,21.51
2018-04-11T13:59:56.222Z,21.56
2018-04-11T14:01:57.955Z,21.36
2018-04-11T14:03:59.440Z,21.20
2018-04-11T14:06:00.923Z,21.09
2018-04-11T14:08:02.693Z,21.21
2018-04-11T14:10:04.205Z,21.29
2018-04-11T14:12:05.637Z,20.98
2018-04-11T14:14:07.065Z,21.06
2018-04-11T14:16:08.495Z,21.08
2018-04-11T14:18:10.354Z,21.02
2018-04-11T14:20:12.243Z,21.08
2018-04-11T14:22:13.704Z,20.95
2018-04-11T14:24:15.136Z,20.98
2018-04-11T14:26:16.568Z,20.98
2018-04-11T14:28:18.313Z,21.14
2018-04-11T14:30:19.944Z,21.19
2018-04-11T14:32:21.645Z,21.21
2018-04-11T14:34:23.401Z,21.09
2018-04-11T14:36:25.163Z,21.04
2018-04-11T14:38:26.919Z,21.11
2018-04-11T14:40:28.436Z,21.11
2018-04-11T14:42:29.898Z,21.21
2018-04-11T14:44:31.620Z,21.29
2018-04-11T14:46:33.278Z,21.36
2018-04-11T14:48:35.312Z,21.35
2018-04-11T14:50:37.433Z,21.35
2018-04-11T14:52:38.978Z,21.48
2018-04-11T14:54:40.439Z,21.35
2018-04-11T14:56:41.933Z,21.45
2018-04-11T14:58:43.402Z,21.32
2018-04-11T15:00:44.842Z,21.29
2018-04-11T15:02:47.172Z,21.09
2018-04-11T15:04:48.551Z,21.08
2018-04-11T15:06:50.032Z,21.01
2018-04-11T15:08:51.419Z,21.05
2018-04-11T15:10:53.777Z,20.96
2018-04-11T15:12:55.235Z,20.77
2018-04-11T15:14:56.725Z,20.77
2018-04-11T15:16:58.980Z,20.80
2018-04-11T15:19:01.183Z,20.90
2018-04-11T15:21:02.669Z,20.89
2018-04-11T15:23:04.142Z,20.74
2018-04-11T15:25:05.670Z,20.62
2018-04-11T15:27:07.100Z,20.64
2018-04-11T15:29:08.598Z,20.49
2018-04-11T15:31:10.031Z,20.51
2018-04-11T15:33:13.509Z,20.47
2018-04-11T15:35:14.960Z,20.49
2018-04-11T15:37:16.451Z,20.35
2018-04-11T15:39:17.985Z,20.35
2018-04-11T15:41:19.437Z,20.42
2018-04-11T15:43:20.882Z,20.41
2018-04-11T15:45:23.038Z,20.47
2018-04-11T15:47:25.084Z,20.61
2018-04-11T15:49:27.324Z,20.59
2018-04-11T15:51:28.832Z,20.54
2018-04-11T15:53:30.271Z,20.65
2018-04-11T15:55:31.701Z,20.62
2018-04-11T15:57:33.131Z,20.71
2018-04-11T15:59:34.563Z,20.71
2018-04-11T16:01:35.999Z,20.58
2018-04-11T16:03:37.417Z,20.46
2018-04-11T16:05:39.561Z,20.43
2018-04-11T16:07:41.021Z,20.50
2018-04-11T16:09:42.451Z,20.49
2018-04-11T16:11:43.884Z,20.39
2018-04-11T16:13:48.801Z,20.35
2018-04-11T16:15:51.032Z,20.10
2018-04-11T16:17:53.225Z,19.98
2018-04-11T16:19:54.886Z,19.98
2018-04-11T16:21:56.830Z,19.83
2018-04-11T16:23:58.446Z,19.80
2018-04-11T16:25:59.911Z,19.91
2018-04-11T16:28:01.347Z,19.98
2018-04-11T16:30:03.258Z,20.00
2018-04-11T16:32:05.445Z,19.97
2018-04-11T16:34:07.744Z,20.05
2018-04-11T16:36:09.314Z,19.90
2018-04-11T16:38:51.732Z,19.86
2018-04-11T16:40:53.165Z,19.91
2018-04-11T16:42:54.638Z,19.78
2018-04-11T16:44:56.072Z,19.80
2018-04-11T16:46:58.391Z,19.60
2018-04-11T16:48:59.796Z,19.53
2018-04-11T16:51:01.952Z,19.60
2018-04-11T16:53:03.561Z,19.51
2018-04-11T16:55:05.010Z,19.50
2018-04-11T16:57:06.458Z,19.25
2018-04-11T16:59:07.897Z,19.35
2018-04-11T17:01:09.386Z,19.36
2018-04-11T17:03:11.710Z,19.39
2018-04-11T17:05:13.200Z,19.35
2018-04-11T17:07:14.691Z,19.29
2018-04-11T17:09:16.133Z,19.25
2018-04-11T17:11:18.260Z,19.25
2018-04-11T17:13:19.689Z,19.31
2018-04-11T17:15:21.806Z,19.21
2018-04-11T17:17:23.860Z,19.20
2018-04-11T17:19:25.302Z,19.29
2018-04-11T17:21:26.808Z,19.23
2018-04-11T17:23:28.245Z,19.18
2018-04-11T17:25:30.403Z,19.05
2018-04-11T17:27:31.782Z,19.05
2018-04-11T17:29:33.223Z,19.01
2018-04-11T17:31:34.650Z,18.83
2018-04-11T17:33:36.089Z,18.73
2018-04-11T17:35:37.503Z,18.46
2018-04-11T17:37:38.938Z,18.47
2018-04-11T17:39:40.358Z,18.47
2018-04-11T17:41:42.400Z,18.52
2018-04-11T17:43:43.820Z,18.49
2018-04-11T17:45:45.246Z,18.55
2018-04-11T17:47:46.672Z,18.40
2018-04-11T17:49:48.648Z,18.52
2018-04-11T17:51:50.568Z,18.55
2018-04-11T17:53:52.616Z,18.46
2018-04-11T17:55:54.065Z,18.64
2018-04-11T17:57:56.149Z,18.55
2018-04-11T17:59:57.671Z,18.65
2018-04-11T18:01:59.116Z,18.64
2018-04-11T18:04:01.416Z,18.61
2018-04-11T18:06:03.375Z,18.57
2018-04-11T18:08:04.918Z,18.52
2018-04-11T18:10:06.388Z,18.49
2018-04-11T18:12:07.848Z,18.40
2018-04-11T18:14:09.325Z,18.39
2018-04-11T18:16:11.343Z,18.36
2018-04-11T18:18:12.851Z,18.36
2018-04-11T18:20:14.902Z,18.21
2018-04-11T18:22:16.408Z,18.22
2018-04-11T18:24:17.883Z,18.21
2018-04-11T18:26:19.343Z,18.19
2018-04-11T18:28:20.776Z,18.27
2018-04-11T18:30:22.244Z,18.31
2018-04-11T18:32:23.716Z,18.27
2018-04-11T18:34:25.933Z,18.27
2018-04-11T18:36:27.603Z,18.25
2018-04-11T18:38:29.073Z,18.18
2018-04-11T18:40:31.168Z,18.22
2018-04-11T18:42:32.770Z,18.15
2018-04-11T18:44:34.383Z,18.09
2018-04-11T18:46:36.282Z,18.15
2018-04-11T18:48:37.896Z,18.10
2018-04-11T18:50:39.583Z,18.10
2018-04-11T18:52:41.321Z,18.15
2018-04-11T18:54:43.137Z,18.10
2018-04-11T18:56:44.887Z,18.02
2018-04-11T18:58:46.755Z,17.99
2018-04-11T19:00:48.550Z,18.00
2018-04-11T19:02:50.056Z,17.97
2018-04-11T19:04:51.525Z,17.95
2018-04-11T19:06:53.331Z,17.94
2018-04-11T19:08:55.093Z,17.94
2018-04-11T19:10:56.799Z,17.92
2018-04-11T19:12:58.597Z,17.85
2018-04-11T19:15:00.085Z,17.73
2018-04-11T19:17:01.624Z,17.79
2018-04-11T19:19:03.259Z,17.66
2018-04-11T19:21:04.797Z,17.57
2018-04-11T19:23:06.385Z,17.55
2018-04-11T19:25:07.855Z,17.51
2018-04-11T19:27:09.516Z,17.55
2018-04-11T19:29:11.067Z,17.51
2018-04-11T19:31:12.736Z,17.33
2018-04-11T19:33:14.791Z,17.36
2018-04-11T19:35:16.959Z,17.36
2018-04-11T19:37:18.626Z,17.41
2018-04-11T19:39:20.378Z,17.29
2018-04-11T19:41:22.046Z,17.26
2018-04-11T19:43:23.797Z,17.40
2018-04-11T19:45:25.525Z,17.36
2018-04-11T19:47:27.270Z,17.28
2018-04-11T19:49:29.440Z,17.26
2018-04-11T19:51:31.019Z,17.29
2018-04-11T19:53:32.525Z,17.30
2018-04-11T19:55:34.306Z,17.23
2018-04-11T19:57:35.884Z,17.11
2018-04-11T19:59:37.790Z,17.13
2018-04-11T20:01:39.247Z,17.08
2018-04-11T20:03:40.718Z,17.13
2018-04-11T20:05:42.370Z,17.07
2018-04-11T20:07:43.863Z,17.14
2018-04-11T20:09:45.455Z,17.08
2018-04-11T20:11:48.882Z,17.04
2018-04-11T20:13:50.713Z,16.89
2018-04-11T20:15:52.470Z,16.98
2018-04-11T20:17:54.420Z,16.90
2018-04-11T20:19:56.154Z,16.89
2018-04-11T20:21:58.431Z,16.93
2018-04-11T20:24:00.675Z,16.89
2018-04-11T20:26:02.286Z,16.96
2018-04-11T20:28:03.974Z,16.99
2018-04-11T20:30:05.452Z,16.95
2018-04-11T20:32:07.137Z,16.92
2018-04-11T20:34:08.861Z,16.95
2018-04-11T20:36:10.951Z,16.86
2018-04-11T20:38:12.618Z,16.95
2018-04-11T20:40:14.397Z,16.88
2018-04-11T20:42:16.061Z,16.96
2018-04-11T20:44:18.579Z,16.96
2018-04-11T20:46:20.192Z,16.90
2018-04-11T20:48:21.661Z,16.88
2018-04-11T20:50:23.590Z,16.88
2018-04-11T20:52:25.820Z,16.89
2018-04-11T20:54:27.394Z,16.92
2018-04-11T20:56:29.034Z,16.77
2018-04-11T20:58:31.142Z,16.75
2018-04-11T21:00:32.621Z,16.77
2018-04-11T21:02:34.095Z,16.74
2018-04-11T21:04:35.582Z,16.58
2018-04-11T21:06:37.144Z,16.48
2018-04-11T21:08:38.626Z,16.48
2018-04-11T21:10:40.108Z,16.48
2018-04-11T21:12:41.581Z,16.48
2018-04-11T21:14:43.146Z,16.45
2018-04-11T21:16:45.269Z,16.41
2018-04-11T21:18:46.898Z,16.38
2018-04-11T21:20:48.627Z,16.49
2018-04-11T21:22:50.241Z,16.44
2018-04-11T21:24:51.709Z,16.49
2018-04-11T21:26:53.239Z,16.48
2018-04-11T21:28:54.727Z,16.42
2018-04-11T21:30:56.189Z,16.44
2018-04-11T21:32:57.668Z,16.48
2018-04-11T21:34:59.556Z,16.50
2018-04-11T21:37:01.684Z,16.53
2018-04-11T21:39:03.120Z,16.45
2018-04-11T21:41:04.604Z,16.40
2018-04-11T21:43:06.350Z,16.35
2018-04-11T21:45:07.984Z,16.31
2018-04-11T21:47:09.573Z,16.27
2018-04-11T21:49:11.074Z,16.18
2018-04-11T21:51:12.594Z,16.23
2018-04-11T21:53:14.152Z,16.20
2018-04-11T21:55:15.766Z,16.20
2018-04-11T21:57:17.518Z,16.14
2018-04-11T21:59:19.800Z,16.16
2018-04-11T22:01:22.167Z,16.11
2018-04-11T22:03:23.825Z,15.94
2018-04-11T22:05:26.051Z,15.94
2018-04-11T22:07:28.271Z,15.89
2018-04-11T22:09:29.947Z,15.88
2018-04-11T22:11:31.401Z,15.86
2018-04-11T22:13:33.448Z,15.79
2018-04-11T22:15:35.047Z,15.78
2018-04-11T22:17:36.667Z,15.68
2018-04-11T22:19:38.894Z,15.82
2018-04-11T22:21:40.564Z,15.82
2018-04-11T22:23:42.041Z,15.68
2018-04-11T22:25:43.631Z,15.66
2018-04-11T22:27:45.087Z,15.57
2018-04-11T22:29:46.511Z,15.46
2018-04-11T22:31:47.979Z,15.41
2018-04-11T22:33:49.428Z,15.43
2018-04-11T22:35:50.877Z,15.36
2018-04-11T22:37:52.649Z,15.43
2018-04-11T22:39:54.225Z,15.28
2018-04-11T22:41:55.874Z,15.33
2018-04-11T22:43:57.570Z,15.26
2018-04-11T22:45:59.034Z,15.35
2018-04-11T22:48:00.545Z,15.31
2018-04-11T22:50:02.009Z,15.26
2018-04-11T22:52:04.444Z,15.24
2018-04-11T22:54:06.674Z,15.20
2018-04-11T22:56:09.064Z,15.09
2018-04-11T22:58:10.615Z,15.19
2018-04-11T23:00:12.190Z,15.19
2018-04-11T23:02:13.895Z,15.19
2018-04-11T23:04:15.405Z,15.02
2018-04-11T23:06:16.873Z,15.02
2018-04-11T23:08:18.543Z,15.11
2018-04-11T23:10:20.180Z,15.05
2018-04-11T23:12:21.641Z,14.90
2018-04-11T23:14:23.152Z,14.84
2018-04-11T23:16:24.629Z,14.81
2018-04-11T23:18:26.036Z,14.83
2018-04-11T23:20:27.957Z,14.74
2018-04-11T23:22:29.454Z,14.74
2018-04-11T23:24:31.080Z,14.64
2018-04-11T23:26:32.746Z,14.44
2018-04-11T23:28:35.048Z,14.46
2018-04-11T23:30:36.488Z,14.42
2018-04-11T23:32:37.924Z,14.39
2018-04-11T23:34:39.602Z,14.35
2018-04-11T23:36:41.211Z,14.38
2018-04-11T23:38:42.889Z,14.47
2018-04-11T23:40:45.080Z,14.39
2018-04-11T23:42:46.522Z,14.34
2018-04-11T23:44:48.514Z,14.32
2018-04-11T23:46:50.197Z,14.21
2018-04-11T23:48:51.677Z,14.27
2018-04-11T23:50:53.274Z,14.32
2018-04-11T23:52:54.773Z,14.39
2018-04-11T23:54:56.242Z,14.35
2018-04-11T23:56:58.435Z,14.37
2018-04-11T23:58:59.949Z,14.37
